sensor_id;sensor_type;location;lat;lon;timestamp;P1;durP1;ratioP1;P2;durP2;ratioP2
23404;SDS011;11875;49.356;2.718;2023-05-17T00:02:05;8.00;;;4.80;;
23404;SDS011;11875;49.356;2.718;2023-05-17T00:04:30;10.53;;;4.63;;
23404;SDS011;11875;49.356;2.718;2023-05-17T00:06:57;6.40;;;4.27;;
23404;SDS011;11875;49.356;2.718;2023-05-17T00:09:23;12.93;;;4.30;;
23404;SDS011;11875;49.356;2.718;2023-05-17T00:11:48;9.40;;;4.87;;
23404;SDS011;11875;49.356;2.718;2023-05-17T00:14:14;9.83;;;4.60;;
23404;SDS011;11875;49.356;2.718;2023-05-17T00:16:40;7.50;;;4.37;;
23404;SDS011;11875;49.356;2.718;2023-05-17T00:19:06;6.13;;;4.10;;
23404;SDS011;11875;49.356;2.718;2023-05-17T00:21:33;6.53;;;4.67;;
23404;SDS011;11875;49.356;2.718;2023-05-17T00:23:59;7.63;;;4.40;;
23404;SDS011;11875;49.356;2.718;2023-05-17T00:26:24;8.70;;;4.57;;
23404;SDS011;11875;49.356;2.718;2023-05-17T00:28:50;9.23;;;4.10;;
23404;SDS011;11875;49.356;2.718;2023-05-17T00:31:16;7.53;;;4.17;;
23404;SDS011;11875;49.356;2.718;2023-05-17T00:33:41;6.97;;;4.37;;
23404;SDS011;11875;49.356;2.718;2023-05-17T00:36:07;8.07;;;4.30;;
23404;SDS011;11875;49.356;2.718;2023-05-17T00:38:33;11.30;;;4.70;;
23404;SDS011;11875;49.356;2.718;2023-05-17T00:40:58;7.90;;;4.70;;
23404;SDS011;11875;49.356;2.718;2023-05-17T00:43:24;7.53;;;4.50;;
23404;SDS011;11875;49.356;2.718;2023-05-17T00:45:51;7.40;;;4.00;;
23404;SDS011;11875;49.356;2.718;2023-05-17T00:48:17;5.00;;;4.07;;
23404;SDS011;11875;49.356;2.718;2023-05-17T00:50:45;6.67;;;3.87;;
23404;SDS011;11875;49.356;2.718;2023-05-17T00:53:11;7.33;;;3.67;;
23404;SDS011;11875;49.356;2.718;2023-05-17T00:55:40;8.87;;;4.50;;
23404;SDS011;11875;49.356;2.718;2023-05-17T00:58:10;9.97;;;4.03;;
23404;SDS011;11875;49.356;2.718;2023-05-17T01:00:36;6.33;;;4.00;;
23404;SDS011;11875;49.356;2.718;2023-05-17T01:03:02;7.27;;;4.20;;
23404;SDS011;11875;49.356;2.718;2023-05-17T01:05:28;8.50;;;3.97;;
23404;SDS011;11875;49.356;2.718;2023-05-17T01:07:54;8.77;;;4.27;;
23404;SDS011;11875;49.356;2.718;2023-05-17T01:10:21;9.40;;;4.27;;
23404;SDS011;11875;49.356;2.718;2023-05-17T01:13:09;10.13;;;4.27;;
23404;SDS011;11875;49.356;2.718;2023-05-17T01:16:41;7.67;;;4.57;;
23404;SDS011;11875;49.356;2.718;2023-05-17T01:19:01;8.97;;;4.57;;
23404;SDS011;11875;49.356;2.718;2023-05-17T01:24:27;9.23;;;4.77;;
23404;SDS011;11875;49.356;2.718;2023-05-17T01:27:03;9.70;;;4.80;;
23404;SDS011;11875;49.356;2.718;2023-05-17T01:29:29;11.07;;;4.63;;
23404;SDS011;11875;49.356;2.718;2023-05-17T01:31:56;9.30;;;4.33;;
23404;SDS011;11875;49.356;2.718;2023-05-17T01:34:27;11.10;;;4.73;;
23404;SDS011;11875;49.356;2.718;2023-05-17T01:36:53;6.30;;;3.87;;
23404;SDS011;11875;49.356;2.718;2023-05-17T01:39:19;8.90;;;4.63;;
23404;SDS011;11875;49.356;2.718;2023-05-17T01:41:50;8.40;;;4.30;;
23404;SDS011;11875;49.356;2.718;2023-05-17T01:44:25;11.43;;;4.60;;
23404;SDS011;11875;49.356;2.718;2023-05-17T01:47:08;10.90;;;4.57;;
23404;SDS011;11875;49.356;2.718;2023-05-17T01:49:40;6.93;;;4.33;;
23404;SDS011;11875;49.356;2.718;2023-05-17T01:55:06;8.37;;;4.63;;
23404;SDS011;11875;49.356;2.718;2023-05-17T01:57:52;5.93;;;4.40;;
23404;SDS011;11875;49.356;2.718;2023-05-17T02:00:20;6.13;;;3.83;;
23404;SDS011;11875;49.356;2.718;2023-05-17T02:02:48;9.00;;;4.20;;
23404;SDS011;11875;49.356;2.718;2023-05-17T02:05:14;8.40;;;4.73;;
23404;SDS011;11875;49.356;2.718;2023-05-17T02:07:39;9.93;;;4.63;;
23404;SDS011;11875;49.356;2.718;2023-05-17T02:10:06;8.57;;;4.30;;
23404;SDS011;11875;49.356;2.718;2023-05-17T02:12:32;10.73;;;5.13;;
23404;SDS011;11875;49.356;2.718;2023-05-17T02:14:57;7.73;;;4.43;;
23404;SDS011;11875;49.356;2.718;2023-05-17T02:17:23;7.10;;;4.60;;
23404;SDS011;11875;49.356;2.718;2023-05-17T02:19:49;8.20;;;4.77;;
23404;SDS011;11875;49.356;2.718;2023-05-17T02:22:14;6.97;;;4.53;;
23404;SDS011;11875;49.356;2.718;2023-05-17T02:24:40;13.50;;;5.77;;
23404;SDS011;11875;49.356;2.718;2023-05-17T02:27:05;13.70;;;5.80;;
23404;SDS011;11875;49.356;2.718;2023-05-17T02:29:31;8.57;;;5.90;;
23404;SDS011;11875;49.356;2.718;2023-05-17T02:31:57;9.43;;;6.10;;
23404;SDS011;11875;49.356;2.718;2023-05-17T02:34:23;14.00;;;6.20;;
23404;SDS011;11875;49.356;2.718;2023-05-17T02:36:48;9.57;;;6.27;;
23404;SDS011;11875;49.356;2.718;2023-05-17T02:39:14;14.03;;;7.00;;
23404;SDS011;11875;49.356;2.718;2023-05-17T02:41:40;13.43;;;6.57;;
23404;SDS011;11875;49.356;2.718;2023-05-17T02:44:06;13.47;;;7.13;;
23404;SDS011;11875;49.356;2.718;2023-05-17T02:46:31;14.17;;;8.70;;
23404;SDS011;11875;49.356;2.718;2023-05-17T02:48:57;13.83;;;7.50;;
23404;SDS011;11875;49.356;2.718;2023-05-17T02:51:23;17.07;;;8.00;;
23404;SDS011;11875;49.356;2.718;2023-05-17T02:53:48;18.43;;;8.67;;
23404;SDS011;11875;49.356;2.718;2023-05-17T02:56:14;13.83;;;7.97;;
23404;SDS011;11875;49.356;2.718;2023-05-17T02:58:40;12.03;;;8.10;;
23404;SDS011;11875;49.356;2.718;2023-05-17T03:01:06;17.43;;;8.53;;
23404;SDS011;11875;49.356;2.718;2023-05-17T03:03:31;12.63;;;7.73;;
23404;SDS011;11875;49.356;2.718;2023-05-17T03:06:00;14.63;;;8.23;;
23404;SDS011;11875;49.356;2.718;2023-05-17T03:08:26;16.10;;;8.70;;
23404;SDS011;11875;49.356;2.718;2023-05-17T03:10:52;15.70;;;8.67;;
23404;SDS011;11875;49.356;2.718;2023-05-17T03:13:17;16.53;;;8.50;;
23404;SDS011;11875;49.356;2.718;2023-05-17T03:15:43;12.33;;;7.57;;
23404;SDS011;11875;49.356;2.718;2023-05-17T03:18:09;20.60;;;8.03;;
23404;SDS011;11875;49.356;2.718;2023-05-17T03:20:34;16.77;;;8.23;;
23404;SDS011;11875;49.356;2.718;2023-05-17T03:23:00;14.07;;;8.17;;
23404;SDS011;11875;49.356;2.718;2023-05-17T03:25:26;17.70;;;8.63;;
23404;SDS011;11875;49.356;2.718;2023-05-17T03:27:51;12.47;;;8.23;;
23404;SDS011;11875;49.356;2.718;2023-05-17T03:30:17;13.67;;;7.30;;
23404;SDS011;11875;49.356;2.718;2023-05-17T03:32:42;11.83;;;6.70;;
23404;SDS011;11875;49.356;2.718;2023-05-17T03:35:09;13.37;;;6.73;;
23404;SDS011;11875;49.356;2.718;2023-05-17T03:37:35;15.20;;;7.53;;
23404;SDS011;11875;49.356;2.718;2023-05-17T03:40:00;18.60;;;7.93;;
23404;SDS011;11875;49.356;2.718;2023-05-17T03:42:26;13.03;;;7.67;;
23404;SDS011;11875;49.356;2.718;2023-05-17T03:44:52;16.33;;;7.80;;
23404;SDS011;11875;49.356;2.718;2023-05-17T03:47:18;22.77;;;9.67;;
23404;SDS011;11875;49.356;2.718;2023-05-17T03:49:47;23.87;;;11.93;;
23404;SDS011;11875;49.356;2.718;2023-05-17T03:52:13;30.67;;;15.77;;
23404;SDS011;11875;49.356;2.718;2023-05-17T03:54:38;38.37;;;17.00;;
23404;SDS011;11875;49.356;2.718;2023-05-17T03:57:04;38.60;;;18.30;;
23404;SDS011;11875;49.356;2.718;2023-05-17T03:59:30;23.93;;;13.37;;
23404;SDS011;11875;49.356;2.718;2023-05-17T04:01:55;20.37;;;11.27;;
23404;SDS011;11875;49.356;2.718;2023-05-17T04:04:21;20.10;;;10.60;;
23404;SDS011;11875;49.356;2.718;2023-05-17T04:06:47;24.57;;;10.63;;
23404;SDS011;11875;49.356;2.718;2023-05-17T04:09:12;23.53;;;12.30;;
23404;SDS011;11875;49.356;2.718;2023-05-17T04:11:39;20.03;;;10.40;;
23404;SDS011;11875;49.356;2.718;2023-05-17T04:14:05;19.77;;;11.20;;
23404;SDS011;11875;49.356;2.718;2023-05-17T04:16:31;22.67;;;11.00;;
23404;SDS011;11875;49.356;2.718;2023-05-17T04:18:58;21.37;;;10.03;;
23404;SDS011;11875;49.356;2.718;2023-05-17T04:21:24;14.83;;;9.10;;
23404;SDS011;11875;49.356;2.718;2023-05-17T04:23:50;19.63;;;10.90;;
23404;SDS011;11875;49.356;2.718;2023-05-17T04:26:16;18.53;;;9.33;;
23404;SDS011;11875;49.356;2.718;2023-05-17T04:28:42;19.03;;;10.50;;
23404;SDS011;11875;49.356;2.718;2023-05-17T04:31:08;17.87;;;10.20;;
23404;SDS011;11875;49.356;2.718;2023-05-17T04:33:34;15.60;;;9.50;;
23404;SDS011;11875;49.356;2.718;2023-05-17T04:36:01;17.23;;;9.53;;
23404;SDS011;11875;49.356;2.718;2023-05-17T04:38:27;18.43;;;9.73;;
23404;SDS011;11875;49.356;2.718;2023-05-17T04:40:53;14.73;;;9.57;;
23404;SDS011;11875;49.356;2.718;2023-05-17T04:43:28;17.03;;;9.87;;
23404;SDS011;11875;49.356;2.718;2023-05-17T04:45:58;16.57;;;9.47;;
23404;SDS011;11875;49.356;2.718;2023-05-17T04:48:25;15.10;;;9.33;;
23404;SDS011;11875;49.356;2.718;2023-05-17T04:50:51;14.33;;;10.03;;
23404;SDS011;11875;49.356;2.718;2023-05-17T04:53:17;17.77;;;9.37;;
23404;SDS011;11875;49.356;2.718;2023-05-17T04:55:43;20.43;;;9.90;;
23404;SDS011;11875;49.356;2.718;2023-05-17T04:58:10;13.93;;;9.07;;
23404;SDS011;11875;49.356;2.718;2023-05-17T05:00:35;19.00;;;9.43;;
23404;SDS011;11875;49.356;2.718;2023-05-17T05:03:01;17.33;;;9.00;;
23404;SDS011;11875;49.356;2.718;2023-05-17T05:05:28;17.40;;;9.67;;
23404;SDS011;11875;49.356;2.718;2023-05-17T05:07:55;13.90;;;9.23;;
23404;SDS011;11875;49.356;2.718;2023-05-17T05:10:21;23.60;;;10.17;;
23404;SDS011;11875;49.356;2.718;2023-05-17T05:12:47;18.70;;;10.63;;
23404;SDS011;11875;49.356;2.718;2023-05-17T05:15:13;22.90;;;9.20;;
23404;SDS011;11875;49.356;2.718;2023-05-17T05:17:40;16.07;;;10.70;;
23404;SDS011;11875;49.356;2.718;2023-05-17T05:20:06;15.17;;;9.23;;
23404;SDS011;11875;49.356;2.718;2023-05-17T05:22:32;18.83;;;10.00;;
23404;SDS011;11875;49.356;2.718;2023-05-17T05:24:58;18.70;;;11.80;;
23404;SDS011;11875;49.356;2.718;2023-05-17T05:27:24;17.17;;;10.20;;
23404;SDS011;11875;49.356;2.718;2023-05-17T05:29:49;17.70;;;9.90;;
23404;SDS011;11875;49.356;2.718;2023-05-17T05:32:15;15.07;;;9.80;;
23404;SDS011;11875;49.356;2.718;2023-05-17T05:34:41;19.27;;;9.90;;
23404;SDS011;11875;49.356;2.718;2023-05-17T05:37:06;14.77;;;9.67;;
23404;SDS011;11875;49.356;2.718;2023-05-17T05:39:32;12.83;;;8.90;;
23404;SDS011;11875;49.356;2.718;2023-05-17T05:41:58;16.13;;;9.63;;
23404;SDS011;11875;49.356;2.718;2023-05-17T05:44:23;13.70;;;9.30;;
23404;SDS011;11875;49.356;2.718;2023-05-17T05:46:49;17.87;;;10.03;;
23404;SDS011;11875;49.356;2.718;2023-05-17T05:49:15;21.27;;;9.77;;
23404;SDS011;11875;49.356;2.718;2023-05-17T05:51:40;21.87;;;9.90;;
23404;SDS011;11875;49.356;2.718;2023-05-17T05:54:06;17.93;;;9.97;;
23404;SDS011;11875;49.356;2.718;2023-05-17T05:56:31;18.20;;;10.20;;
23404;SDS011;11875;49.356;2.718;2023-05-17T05:58:57;14.93;;;8.73;;
23404;SDS011;11875;49.356;2.718;2023-05-17T06:01:23;14.87;;;9.47;;
23404;SDS011;11875;49.356;2.718;2023-05-17T06:03:49;15.63;;;8.67;;
23404;SDS011;11875;49.356;2.718;2023-05-17T06:06:15;16.70;;;9.27;;
23404;SDS011;11875;49.356;2.718;2023-05-17T06:08:43;21.43;;;8.67;;
23404;SDS011;11875;49.356;2.718;2023-05-17T06:11:09;15.10;;;7.87;;
23404;SDS011;11875;49.356;2.718;2023-05-17T06:13:35;20.13;;;9.50;;
23404;SDS011;11875;49.356;2.718;2023-05-17T06:16:00;15.70;;;9.70;;
23404;SDS011;11875;49.356;2.718;2023-05-17T06:18:26;13.20;;;8.40;;
23404;SDS011;11875;49.356;2.718;2023-05-17T06:20:52;15.67;;;9.10;;
23404;SDS011;11875;49.356;2.718;2023-05-17T06:23:17;78.43;;;10.93;;
23404;SDS011;11875;49.356;2.718;2023-05-17T06:25:43;19.43;;;7.63;;
23404;SDS011;11875;49.356;2.718;2023-05-17T06:28:08;16.20;;;8.10;;
23404;SDS011;11875;49.356;2.718;2023-05-17T06:30:34;17.47;;;7.80;;
23404;SDS011;11875;49.356;2.718;2023-05-17T06:33:00;18.70;;;8.13;;
23404;SDS011;11875;49.356;2.718;2023-05-17T06:35:26;21.10;;;7.83;;
23404;SDS011;11875;49.356;2.718;2023-05-17T06:37:51;17.80;;;7.97;;
23404;SDS011;11875;49.356;2.718;2023-05-17T06:40:17;17.40;;;8.53;;
23404;SDS011;11875;49.356;2.718;2023-05-17T06:42:43;14.43;;;7.40;;
23404;SDS011;11875;49.356;2.718;2023-05-17T06:45:08;16.37;;;7.83;;
23404;SDS011;11875;49.356;2.718;2023-05-17T06:47:34;14.20;;;7.63;;
23404;SDS011;11875;49.356;2.718;2023-05-17T06:50:00;19.30;;;9.00;;
23404;SDS011;11875;49.356;2.718;2023-05-17T06:52:26;16.40;;;7.40;;
23404;SDS011;11875;49.356;2.718;2023-05-17T06:54:51;17.17;;;9.03;;
23404;SDS011;11875;49.356;2.718;2023-05-17T06:57:17;20.55;;;8.25;;
23404;SDS011;11875;49.356;2.718;2023-05-17T06:59:43;18.27;;;8.20;;
23404;SDS011;11875;49.356;2.718;2023-05-17T07:02:08;22.07;;;8.73;;
23404;SDS011;11875;49.356;2.718;2023-05-17T07:04:34;18.83;;;8.53;;
23404;SDS011;11875;49.356;2.718;2023-05-17T07:06:59;15.67;;;7.77;;
23404;SDS011;11875;49.356;2.718;2023-05-17T07:09:26;17.17;;;8.27;;
23404;SDS011;11875;49.356;2.718;2023-05-17T07:11:52;22.30;;;8.38;;
23404;SDS011;11875;49.356;2.718;2023-05-17T07:14:18;17.90;;;7.07;;
23404;SDS011;11875;49.356;2.718;2023-05-17T07:16:43;20.30;;;8.77;;
23404;SDS011;11875;49.356;2.718;2023-05-17T07:19:09;13.85;;;7.15;;
23404;SDS011;11875;49.356;2.718;2023-05-17T07:21:35;15.27;;;6.90;;
23404;SDS011;11875;49.356;2.718;2023-05-17T07:24:00;16.70;;;7.20;;
23404;SDS011;11875;49.356;2.718;2023-05-17T07:26:26;18.83;;;7.60;;
23404;SDS011;11875;49.356;2.718;2023-05-17T07:28:52;22.90;;;7.97;;
23404;SDS011;11875;49.356;2.718;2023-05-17T07:31:17;14.20;;;6.82;;
23404;SDS011;11875;49.356;2.718;2023-05-17T07:33:43;14.80;;;7.72;;
23404;SDS011;11875;49.356;2.718;2023-05-17T07:36:09;14.57;;;7.07;;
23404;SDS011;11875;49.356;2.718;2023-05-17T07:38:34;13.65;;;6.75;;
23404;SDS011;11875;49.356;2.718;2023-05-17T07:41:00;17.05;;;7.03;;
23404;SDS011;11875;49.356;2.718;2023-05-17T07:43:26;12.73;;;6.35;;
23404;SDS011;11875;49.356;2.718;2023-05-17T07:45:52;17.63;;;6.25;;
23404;SDS011;11875;49.356;2.718;2023-05-17T07:48:18;16.13;;;6.47;;
23404;SDS011;11875;49.356;2.718;2023-05-17T07:50:44;11.90;;;5.80;;
23404;SDS011;11875;49.356;2.718;2023-05-17T07:53:10;14.25;;;6.32;;
23404;SDS011;11875;49.356;2.718;2023-05-17T07:55:36;14.15;;;5.78;;
23404;SDS011;11875;49.356;2.718;2023-05-17T07:58:02;13.68;;;6.00;;
23404;SDS011;11875;49.356;2.718;2023-05-17T08:00:28;12.73;;;6.15;;
23404;SDS011;11875;49.356;2.718;2023-05-17T08:02:54;11.00;;;5.60;;
23404;SDS011;11875;49.356;2.718;2023-05-17T08:05:20;12.27;;;4.82;;
23404;SDS011;11875;49.356;2.718;2023-05-17T08:07:46;11.93;;;5.45;;
23404;SDS011;11875;49.356;2.718;2023-05-17T08:10:12;13.88;;;5.60;;
23404;SDS011;11875;49.356;2.718;2023-05-17T08:12:37;14.52;;;5.55;;
23404;SDS011;11875;49.356;2.718;2023-05-17T08:15:03;11.40;;;5.13;;
23404;SDS011;11875;49.356;2.718;2023-05-17T08:17:29;9.48;;;4.80;;
23404;SDS011;11875;49.356;2.718;2023-05-17T08:19:55;10.30;;;4.50;;
23404;SDS011;11875;49.356;2.718;2023-05-17T08:22:20;13.50;;;5.20;;
23404;SDS011;11875;49.356;2.718;2023-05-17T08:24:46;11.18;;;5.00;;
23404;SDS011;11875;49.356;2.718;2023-05-17T08:27:12;29.17;;;5.15;;
23404;SDS011;11875;49.356;2.718;2023-05-17T08:29:37;12.10;;;4.60;;
23404;SDS011;11875;49.356;2.718;2023-05-17T08:32:03;9.15;;;4.25;;
23404;SDS011;11875;49.356;2.718;2023-05-17T08:34:29;11.13;;;4.50;;
23404;SDS011;11875;49.356;2.718;2023-05-17T08:36:55;9.88;;;4.80;;
23404;SDS011;11875;49.356;2.718;2023-05-17T08:39:20;15.15;;;5.13;;
23404;SDS011;11875;49.356;2.718;2023-05-17T08:41:46;13.27;;;5.28;;
23404;SDS011;11875;49.356;2.718;2023-05-17T08:44:13;15.35;;;4.95;;
23404;SDS011;11875;49.356;2.718;2023-05-17T08:46:41;10.45;;;4.55;;
23404;SDS011;11875;49.356;2.718;2023-05-17T08:49:08;7.93;;;4.03;;
23404;SDS011;11875;49.356;2.718;2023-05-17T08:51:36;7.82;;;3.88;;
23404;SDS011;11875;49.356;2.718;2023-05-17T08:54:06;10.00;;;4.07;;
23404;SDS011;11875;49.356;2.718;2023-05-17T08:56:32;12.35;;;3.85;;
23404;SDS011;11875;49.356;2.718;2023-05-17T08:58:59;7.88;;;3.50;;
23404;SDS011;11875;49.356;2.718;2023-05-17T09:01:26;13.18;;;3.47;;
23404;SDS011;11875;49.356;2.718;2023-05-17T09:03:53;6.65;;;3.50;;
23404;SDS011;11875;49.356;2.718;2023-05-17T09:06:20;7.60;;;3.58;;
23404;SDS011;11875;49.356;2.718;2023-05-17T09:08:46;8.20;;;3.65;;
23404;SDS011;11875;49.356;2.718;2023-05-17T09:11:23;8.63;;;3.78;;
23404;SDS011;11875;49.356;2.718;2023-05-17T09:14:03;9.45;;;4.03;;
23404;SDS011;11875;49.356;2.718;2023-05-17T09:16:31;13.90;;;4.47;;
23404;SDS011;11875;49.356;2.718;2023-05-17T09:19:02;9.18;;;3.33;;
23404;SDS011;11875;49.356;2.718;2023-05-17T09:21:29;6.70;;;3.42;;
23404;SDS011;11875;49.356;2.718;2023-05-17T09:23:55;12.45;;;4.05;;
23404;SDS011;11875;49.356;2.718;2023-05-17T09:26:23;6.70;;;3.20;;
23404;SDS011;11875;49.356;2.718;2023-05-17T09:28:49;7.30;;;3.08;;
23404;SDS011;11875;49.356;2.718;2023-05-17T09:31:17;8.30;;;2.95;;
23404;SDS011;11875;49.356;2.718;2023-05-17T09:33:47;7.03;;;2.95;;
23404;SDS011;11875;49.356;2.718;2023-05-17T09:36:17;7.05;;;3.22;;
23404;SDS011;11875;49.356;2.718;2023-05-17T09:38:51;6.63;;;2.83;;
23404;SDS011;11875;49.356;2.718;2023-05-17T09:41:29;5.20;;;2.65;;
23404;SDS011;11875;49.356;2.718;2023-05-17T09:44:02;4.22;;;2.83;;
23404;SDS011;11875;49.356;2.718;2023-05-17T09:46:33;5.30;;;2.70;;
23404;SDS011;11875;49.356;2.718;2023-05-17T09:49:02;5.97;;;2.75;;
23404;SDS011;11875;49.356;2.718;2023-05-17T09:51:47;7.68;;;2.58;;
23404;SDS011;11875;49.356;2.718;2023-05-17T09:54:13;5.38;;;2.83;;
23404;SDS011;11875;49.356;2.718;2023-05-17T09:56:41;6.32;;;2.35;;
23404;SDS011;11875;49.356;2.718;2023-05-17T09:59:14;5.88;;;2.50;;
23404;SDS011;11875;49.356;2.718;2023-05-17T10:01:40;4.53;;;2.60;;
23404;SDS011;11875;49.356;2.718;2023-05-17T10:04:11;6.13;;;2.92;;
23404;SDS011;11875;49.356;2.718;2023-05-17T10:06:37;6.07;;;2.65;;
23404;SDS011;11875;49.356;2.718;2023-05-17T10:09:05;7.55;;;3.28;;
23404;SDS011;11875;49.356;2.718;2023-05-17T10:11:33;8.52;;;3.13;;
23404;SDS011;11875;49.356;2.718;2023-05-17T10:14:07;5.22;;;2.67;;
23404;SDS011;11875;49.356;2.718;2023-05-17T10:16:36;9.75;;;3.05;;
23404;SDS011;11875;49.356;2.718;2023-05-17T10:19:02;4.63;;;2.30;;
23404;SDS011;11875;49.356;2.718;2023-05-17T10:21:30;5.68;;;2.40;;
23404;SDS011;11875;49.356;2.718;2023-05-17T10:23:57;6.53;;;2.78;;
23404;SDS011;11875;49.356;2.718;2023-05-17T10:26:26;5.63;;;2.53;;
23404;SDS011;11875;49.356;2.718;2023-05-17T10:28:53;6.35;;;3.03;;
23404;SDS011;11875;49.356;2.718;2023-05-17T10:31:26;6.28;;;2.35;;
23404;SDS011;11875;49.356;2.718;2023-05-17T10:33:54;6.45;;;2.63;;
23404;SDS011;11875;49.356;2.718;2023-05-17T10:36:19;8.23;;;2.28;;
23404;SDS011;11875;49.356;2.718;2023-05-17T10:38:48;6.43;;;2.33;;
23404;SDS011;11875;49.356;2.718;2023-05-17T10:41:14;5.43;;;2.10;;
23404;SDS011;11875;49.356;2.718;2023-05-17T10:43:43;4.85;;;2.35;;
23404;SDS011;11875;49.356;2.718;2023-05-17T10:46:19;4.93;;;2.38;;
23404;SDS011;11875;49.356;2.718;2023-05-17T10:48:47;4.13;;;2.13;;
23404;SDS011;11875;49.356;2.718;2023-05-17T10:51:15;5.57;;;1.88;;
23404;SDS011;11875;49.356;2.718;2023-05-17T10:56:41;3.33;;;2.22;;
23404;SDS011;11875;49.356;2.718;2023-05-17T10:59:18;9.82;;;2.50;;
23404;SDS011;11875;49.356;2.718;2023-05-17T11:04:42;6.85;;;2.20;;
23404;SDS011;11875;49.356;2.718;2023-05-17T11:12:39;5.10;;;2.10;;
23404;SDS011;11875;49.356;2.718;2023-05-17T11:15:10;4.38;;;2.20;;
23404;SDS011;11875;49.356;2.718;2023-05-17T11:20:39;3.83;;;1.95;;
23404;SDS011;11875;49.356;2.718;2023-05-17T11:23:05;5.97;;;2.25;;
23404;SDS011;11875;49.356;2.718;2023-05-17T11:25:38;4.03;;;1.77;;
23404;SDS011;11875;49.356;2.718;2023-05-17T11:28:17;4.13;;;2.13;;
23404;SDS011;11875;49.356;2.718;2023-05-17T11:30:44;3.35;;;2.45;;
23404;SDS011;11875;49.356;2.718;2023-05-17T11:33:17;5.72;;;2.40;;
23404;SDS011;11875;49.356;2.718;2023-05-17T11:35:45;5.40;;;2.63;;
23404;SDS011;11875;49.356;2.718;2023-05-17T11:38:12;4.97;;;2.00;;
23404;SDS011;11875;49.356;2.718;2023-05-17T11:40:39;7.13;;;2.30;;
23404;SDS011;11875;49.356;2.718;2023-05-17T11:43:21;9.38;;;2.40;;
23404;SDS011;11875;49.356;2.718;2023-05-17T11:45:53;4.30;;;2.38;;
23404;SDS011;11875;49.356;2.718;2023-05-17T11:48:21;5.43;;;2.25;;
23404;SDS011;11875;49.356;2.718;2023-05-17T11:50:50;3.65;;;2.00;;
23404;SDS011;11875;49.356;2.718;2023-05-17T11:53:17;6.53;;;2.38;;
23404;SDS011;11875;49.356;2.718;2023-05-17T11:55:44;3.58;;;2.00;;
23404;SDS011;11875;49.356;2.718;2023-05-17T11:58:18;4.93;;;2.03;;
23404;SDS011;11875;49.356;2.718;2023-05-17T12:00:51;6.03;;;2.13;;
23404;SDS011;11875;49.356;2.718;2023-05-17T12:03:19;5.18;;;2.20;;
23404;SDS011;11875;49.356;2.718;2023-05-17T12:06:03;5.22;;;2.17;;
23404;SDS011;11875;49.356;2.718;2023-05-17T12:08:31;4.90;;;1.90;;
23404;SDS011;11875;49.356;2.718;2023-05-17T12:10:58;4.03;;;1.85;;
23404;SDS011;11875;49.356;2.718;2023-05-17T12:13:27;3.17;;;1.70;;
23404;SDS011;11875;49.356;2.718;2023-05-17T12:15:55;7.10;;;2.65;;
23404;SDS011;11875;49.356;2.718;2023-05-17T12:18:22;8.85;;;1.73;;
23404;SDS011;11875;49.356;2.718;2023-05-17T12:20:59;4.20;;;1.92;;
23404;SDS011;11875;49.356;2.718;2023-05-17T12:23:28;7.45;;;2.05;;
23404;SDS011;11875;49.356;2.718;2023-05-17T12:26:15;4.90;;;2.60;;
23404;SDS011;11875;49.356;2.718;2023-05-17T12:28:51;5.18;;;1.80;;
23404;SDS011;11875;49.356;2.718;2023-05-17T12:31:24;4.07;;;2.00;;
23404;SDS011;11875;49.356;2.718;2023-05-17T12:33:58;3.58;;;1.90;;
23404;SDS011;11875;49.356;2.718;2023-05-17T12:36:26;5.00;;;1.83;;
23404;SDS011;11875;49.356;2.718;2023-05-17T12:38:53;4.30;;;2.00;;
23404;SDS011;11875;49.356;2.718;2023-05-17T12:41:20;5.80;;;1.88;;
23404;SDS011;11875;49.356;2.718;2023-05-17T12:43:48;3.17;;;1.80;;
23404;SDS011;11875;49.356;2.718;2023-05-17T12:46:15;6.65;;;2.08;;
23404;SDS011;11875;49.356;2.718;2023-05-17T12:48:45;4.90;;;2.20;;
23404;SDS011;11875;49.356;2.718;2023-05-17T12:53:39;4.03;;;1.70;;
23404;SDS011;11875;49.356;2.718;2023-05-17T12:56:06;6.70;;;2.35;;
23404;SDS011;11875;49.356;2.718;2023-05-17T12:58:33;4.25;;;2.22;;
23404;SDS011;11875;49.356;2.718;2023-05-17T13:01:02;5.35;;;2.17;;
23404;SDS011;11875;49.356;2.718;2023-05-17T13:03:31;4.57;;;1.85;;
23404;SDS011;11875;49.356;2.718;2023-05-17T13:06:01;6.78;;;2.53;;
23404;SDS011;11875;49.356;2.718;2023-05-17T13:08:28;5.65;;;1.92;;
23404;SDS011;11875;49.356;2.718;2023-05-17T13:11:04;5.05;;;2.33;;
23404;SDS011;11875;49.356;2.718;2023-05-17T13:13:37;5.38;;;2.05;;
23404;SDS011;11875;49.356;2.718;2023-05-17T13:16:03;5.72;;;2.40;;
23404;SDS011;11875;49.356;2.718;2023-05-17T13:18:29;9.00;;;2.22;;
23404;SDS011;11875;49.356;2.718;2023-05-17T13:20:59;4.78;;;2.17;;
23404;SDS011;11875;49.356;2.718;2023-05-17T13:23:25;4.45;;;2.40;;
23404;SDS011;11875;49.356;2.718;2023-05-17T13:25:51;4.95;;;2.25;;
23404;SDS011;11875;49.356;2.718;2023-05-17T13:28:17;5.50;;;2.35;;
23404;SDS011;11875;49.356;2.718;2023-05-17T13:30:43;4.20;;;2.67;;
23404;SDS011;11875;49.356;2.718;2023-05-17T13:33:15;4.38;;;2.42;;
23404;SDS011;11875;49.356;2.718;2023-05-17T13:35:41;6.32;;;2.47;;
23404;SDS011;11875;49.356;2.718;2023-05-17T13:38:07;3.83;;;2.10;;
23404;SDS011;11875;49.356;2.718;2023-05-17T13:40:33;4.45;;;2.60;;
23404;SDS011;11875;49.356;2.718;2023-05-17T13:42:58;8.20;;;2.30;;
23404;SDS011;11875;49.356;2.718;2023-05-17T13:45:24;7.65;;;2.55;;
23404;SDS011;11875;49.356;2.718;2023-05-17T13:47:50;5.47;;;2.00;;
23404;SDS011;11875;49.356;2.718;2023-05-17T13:50:16;6.85;;;2.60;;
23404;SDS011;11875;49.356;2.718;2023-05-17T13:52:43;8.05;;;2.35;;
23404;SDS011;11875;49.356;2.718;2023-05-17T13:55:09;5.32;;;2.40;;
23404;SDS011;11875;49.356;2.718;2023-05-17T13:57:34;4.22;;;2.13;;
23404;SDS011;11875;49.356;2.718;2023-05-17T14:00:00;7.55;;;2.25;;
23404;SDS011;11875;49.356;2.718;2023-05-17T14:02:26;6.07;;;2.33;;
23404;SDS011;11875;49.356;2.718;2023-05-17T14:04:51;4.75;;;2.13;;
23404;SDS011;11875;49.356;2.718;2023-05-17T14:07:17;8.55;;;2.45;;
23404;SDS011;11875;49.356;2.718;2023-05-17T14:09:43;17.00;;;3.13;;
23404;SDS011;11875;49.356;2.718;2023-05-17T14:12:08;7.10;;;2.50;;
23404;SDS011;11875;49.356;2.718;2023-05-17T14:14:34;5.75;;;2.25;;
23404;SDS011;11875;49.356;2.718;2023-05-17T14:17:00;6.03;;;3.08;;
23404;SDS011;11875;49.356;2.718;2023-05-17T14:19:25;8.27;;;2.53;;
23404;SDS011;11875;49.356;2.718;2023-05-17T14:21:51;8.48;;;2.72;;
23404;SDS011;11875;49.356;2.718;2023-05-17T14:24:16;6.57;;;2.75;;
23404;SDS011;11875;49.356;2.718;2023-05-17T14:26:42;4.55;;;2.60;;
23404;SDS011;11875;49.356;2.718;2023-05-17T14:29:08;5.80;;;2.90;;
23404;SDS011;11875;49.356;2.718;2023-05-17T14:31:33;6.93;;;2.88;;
23404;SDS011;11875;49.356;2.718;2023-05-17T14:33:59;6.20;;;2.30;;
23404;SDS011;11875;49.356;2.718;2023-05-17T14:36:26;7.38;;;2.83;;
23404;SDS011;11875;49.356;2.718;2023-05-17T14:38:52;4.47;;;2.47;;
23404;SDS011;11875;49.356;2.718;2023-05-17T14:41:18;5.28;;;2.80;;
23404;SDS011;11875;49.356;2.718;2023-05-17T14:43:43;4.35;;;2.45;;
23404;SDS011;11875;49.356;2.718;2023-05-17T14:46:09;4.25;;;2.22;;
23404;SDS011;11875;49.356;2.718;2023-05-17T14:48:35;5.38;;;2.70;;
23404;SDS011;11875;49.356;2.718;2023-05-17T14:51:01;7.90;;;3.13;;
23404;SDS011;11875;49.356;2.718;2023-05-17T14:53:27;9.55;;;2.90;;
23404;SDS011;11875;49.356;2.718;2023-05-17T14:55:53;4.18;;;2.65;;
23404;SDS011;11875;49.356;2.718;2023-05-17T14:58:21;7.15;;;2.85;;
23404;SDS011;11875;49.356;2.718;2023-05-17T15:00:46;8.35;;;2.65;;
23404;SDS011;11875;49.356;2.718;2023-05-17T15:03:15;6.50;;;2.80;;
23404;SDS011;11875;49.356;2.718;2023-05-17T15:05:41;5.35;;;2.70;;